createdAt,value
2023-03-08T20:49:09.611Z,987.52
2023-03-08T20:50:09.529Z,987.50
2023-03-08T20:51:09.471Z,987.47
2023-03-08T20:52:09.418Z,987.49
2023-03-08T20:53:09.364Z,987.59
2023-03-08T20:54:09.305Z,987.60
2023-03-08T20:55:09.259Z,987.57
2023-03-08T20:56:09.204Z,987.64
2023-03-08T20:57:09.152Z,987.60
2023-03-08T20:58:09.102Z,987.62
2023-03-08T20:59:09.056Z,987.57
2023-03-08T21:00:08.995Z,987.62
2023-03-08T21:01:08.971Z,987.61
2023-03-08T21:02:08.896Z,987.60
2023-03-08T21:03:08.856Z,987.59
2023-03-08T21:04:08.799Z,987.66
2023-03-08T21:05:08.772Z,987.63
2023-03-08T21:06:08.710Z,987.61
2023-03-08T21:07:08.659Z,987.67
2023-03-08T21:08:08.614Z,987.64
2023-03-08T21:09:08.553Z,987.60
2023-03-08T21:10:08.506Z,987.54
2023-03-08T21:11:08.458Z,987.57
2023-03-08T21:12:08.400Z,987.59
2023-03-08T21:13:08.384Z,987.50
2023-03-08T21:14:08.333Z,987.58
2023-03-08T21:15:08.254Z,987.53
2023-03-08T21:16:08.353Z,987.51
2023-03-08T21:17:08.150Z,987.52
2023-03-08T21:18:08.103Z,987.53
2023-03-08T21:19:08.065Z,987.54
2023-03-08T21:20:08.001Z,987.48
2023-03-08T21:21:07.974Z,987.52
2023-03-08T21:22:07.905Z,987.50
2023-03-08T21:23:07.853Z,987.55
2023-03-08T21:24:07.816Z,987.54
2023-03-08T21:25:07.759Z,987.49
2023-03-08T21:26:07.706Z,987.52
2023-03-08T21:27:07.660Z,987.51
2023-03-08T21:28:07.605Z,987.48
2023-03-08T21:29:07.568Z,987.47
2023-03-08T21:30:07.510Z,987.51
2023-03-08T21:31:07.494Z,987.48
2023-03-08T21:32:07.453Z,987.44
2023-03-08T21:33:07.364Z,987.39
2023-03-08T21:34:07.317Z,987.42
2023-03-08T21:35:07.263Z,987.41
2023-03-08T21:36:07.260Z,987.41
2023-03-08T21:37:07.196Z,987.39
2023-03-08T21:38:07.117Z,987.41
2023-03-08T21:39:07.074Z,987.41
2023-03-08T21:40:07.304Z,987.37
2023-03-08T21:41:06.983Z,987.34
2023-03-08T21:42:06.923Z,987.36
2023-03-08T21:43:06.879Z,987.33
2023-03-08T21:44:06.836Z,987.36
2023-03-08T21:45:06.797Z,987.35
2023-03-08T21:46:06.744Z,987.34
2023-03-08T21:47:06.683Z,987.35
2023-03-08T21:48:06.632Z,987.32
2023-03-08T21:49:06.594Z,987.32
2023-03-08T21:50:08.387Z,987.31
2023-03-08T21:51:06.487Z,987.32
2023-03-08T21:52:06.445Z,987.29
